createdAt,value
2022-10-29T00:00:01.894Z,11.52
2022-10-29T00:02:36.092Z,11.54
2022-10-29T00:05:04.181Z,11.47
2022-10-29T00:07:31.587Z,11.52
2022-10-29T00:09:59.029Z,11.50
2022-10-29T00:12:27.491Z,11.51
2022-10-29T00:14:54.962Z,11.46
2022-10-29T00:17:22.402Z,11.34
2022-10-29T00:19:50.136Z,11.35
2022-10-29T00:22:25.309Z,11.39
2022-10-29T00:24:53.040Z,11.44
2022-10-29T00:27:20.516Z,11.42
2022-10-29T00:29:47.965Z,11.43
2022-10-29T00:32:15.880Z,11.46
2022-10-29T00:34:43.389Z,11.41
2022-10-29T00:37:11.043Z,11.42
2022-10-29T00:39:38.729Z,11.39
2022-10-29T00:42:06.445Z,11.38
2022-10-29T00:44:39.073Z,11.40
2022-10-29T00:47:27.725Z,11.40
2022-10-29T00:50:02.363Z,11.10
2022-10-29T00:52:32.681Z,11.07
2022-10-29T00:55:04.114Z,11.27
2022-10-29T00:57:39.219Z,11.34
2022-10-29T01:00:07.611Z,11.36
2022-10-29T01:02:36.392Z,11.38
2022-10-29T01:05:05.382Z,11.36
2022-10-29T01:07:33.012Z,11.38
2022-10-29T01:10:00.755Z,11.45
2022-10-29T01:12:35.544Z,11.50
2022-10-29T01:15:21.211Z,11.42
2022-10-29T01:18:18.093Z,11.44
2022-10-29T01:21:07.730Z,11.44
2022-10-29T01:24:08.681Z,11.48
2022-10-29T01:27:01.051Z,11.29
2022-10-29T01:29:47.288Z,11.14
2022-10-29T01:32:36.544Z,11.19
2022-10-29T01:35:09.790Z,11.09
2022-10-29T01:38:01.924Z,11.04
2022-10-29T01:40:41.423Z,11.13
2022-10-29T01:43:15.512Z,11.23
2022-10-29T01:45:51.497Z,11.30
2022-10-29T01:48:26.643Z,11.31
2022-10-29T01:50:57.953Z,11.31
2022-10-29T01:53:26.529Z,11.25
2022-10-29T01:55:53.992Z,11.26
2022-10-29T01:58:21.528Z,11.28
2022-10-29T02:00:59.044Z,11.17
2022-10-29T02:04:00.236Z,11.22
2022-10-29T02:06:40.876Z,11.25
2022-10-29T02:09:09.939Z,11.32
2022-10-29T02:11:50.085Z,11.36
2022-10-29T02:14:37.269Z,11.39
2022-10-29T02:17:05.310Z,11.43
2022-10-29T02:19:34.184Z,11.42
2022-10-29T02:22:01.995Z,11.44
2022-10-29T02:24:29.702Z,11.46
2022-10-29T02:26:57.200Z,11.46
2022-10-29T02:29:24.603Z,11.43
2022-10-29T02:31:52.303Z,11.44
2022-10-29T02:34:19.737Z,11.38
2022-10-29T02:36:47.187Z,11.41
2022-10-29T02:39:14.941Z,11.28
2022-10-29T02:41:55.491Z,11.29
2022-10-29T02:44:23.162Z,11.26
2022-10-29T02:46:50.824Z,11.30
2022-10-29T02:49:18.300Z,11.35
2022-10-29T02:51:46.005Z,11.36
2022-10-29T02:54:13.465Z,11.40
2022-10-29T02:56:40.909Z,11.41
2022-10-29T02:59:10.913Z,11.41
2022-10-29T03:01:39.577Z,11.44
2022-10-29T03:04:07.073Z,11.44
2022-10-29T03:06:34.811Z,11.47
2022-10-29T03:09:02.338Z,11.46
2022-10-29T03:11:29.855Z,11.50
2022-10-29T03:13:57.607Z,11.46
2022-10-29T03:16:25.025Z,11.47
2022-10-29T03:18:52.510Z,11.50
2022-10-29T03:21:20.203Z,11.49
2022-10-29T03:23:47.613Z,11.51
2022-10-29T03:26:15.066Z,11.50
2022-10-29T03:28:42.835Z,11.50
2022-10-29T03:31:10.324Z,11.48
2022-10-29T03:33:38.020Z,11.47
2022-10-29T03:36:07.271Z,11.48
2022-10-29T03:38:35.371Z,11.43
2022-10-29T03:41:08.573Z,11.43
2022-10-29T03:43:37.464Z,11.47
2022-10-29T03:46:05.569Z,11.48
2022-10-29T03:48:33.277Z,11.50
2022-10-29T03:51:02.869Z,11.51
2022-10-29T03:53:30.351Z,11.42
2022-10-29T03:55:58.341Z,11.34
2022-10-29T03:58:26.271Z,11.37
2022-10-29T04:00:59.139Z,11.21
2022-10-29T04:03:28.200Z,11.11
2022-10-29T04:05:56.078Z,11.22
2022-10-29T04:08:23.611Z,11.29
2022-10-29T04:10:51.729Z,11.34
2022-10-29T04:13:19.873Z,11.38
2022-10-29T04:15:47.576Z,11.39
2022-10-29T04:18:15.372Z,11.42
2022-10-29T04:22:31.620Z,11.31
2022-10-29T04:29:06.026Z,11.35
2022-10-29T04:31:33.432Z,11.39
2022-10-29T04:34:00.948Z,11.40
2022-10-29T04:36:28.687Z,11.41
2022-10-29T04:38:56.257Z,11.39
2022-10-29T04:41:23.712Z,11.42
2022-10-29T04:43:51.465Z,11.45
2022-10-29T04:46:18.894Z,11.46
2022-10-29T04:48:46.328Z,11.20
2022-10-29T04:51:22.150Z,11.08
2022-10-29T04:53:49.687Z,11.04
2022-10-29T04:56:17.576Z,11.05
2022-10-29T04:58:45.335Z,11.16
2022-10-29T05:01:12.960Z,11.19
2022-10-29T05:03:40.861Z,11.24
2022-10-29T05:06:08.393Z,11.21
2022-10-29T05:08:35.883Z,11.22
2022-10-29T05:11:05.081Z,11.02
2022-10-29T05:13:33.853Z,11.04
2022-10-29T05:16:01.655Z,11.11
2022-10-29T05:18:29.379Z,11.13
2022-10-29T05:20:57.198Z,11.19
2022-10-29T05:23:24.727Z,11.16
2022-10-29T05:25:52.791Z,11.22
2022-10-29T05:28:22.306Z,11.24
2022-10-29T05:30:51.290Z,11.25
2022-10-29T05:33:24.041Z,11.23
2022-10-29T05:35:52.079Z,11.23
2022-10-29T05:38:19.945Z,11.18
2022-10-29T05:40:47.439Z,11.24
2022-10-29T05:43:16.248Z,11.27
2022-10-29T05:45:44.332Z,11.27
2022-10-29T05:50:45.820Z,11.31
2022-10-29T05:53:14.588Z,11.24
2022-10-29T05:55:42.081Z,11.26
2022-10-29T05:58:12.497Z,11.26
2022-10-29T06:00:42.526Z,11.26
2022-10-29T06:03:22.836Z,11.17
2022-10-29T06:05:50.768Z,11.21
2022-10-29T06:08:18.936Z,11.08
2022-10-29T06:10:46.405Z,11.04
2022-10-29T06:13:16.064Z,11.06
2022-10-29T06:15:44.220Z,11.02
2022-10-29T06:18:12.597Z,11.17
2022-10-29T06:20:40.207Z,11.14
2022-10-29T06:23:08.021Z,11.13
2022-10-29T06:25:35.510Z,11.10
2022-10-29T06:28:09.839Z,11.14
2022-10-29T06:30:37.911Z,11.21
2022-10-29T06:33:05.405Z,11.18
2022-10-29T06:35:36.353Z,11.26
2022-10-29T06:38:09.405Z,11.22
2022-10-29T06:40:40.260Z,11.23
2022-10-29T06:43:10.605Z,11.12
2022-10-29T06:45:38.123Z,11.09
2022-10-29T06:48:05.965Z,11.00
2022-10-29T06:50:33.806Z,11.06
2022-10-29T06:53:04.579Z,11.11
2022-10-29T06:55:33.324Z,11.00
2022-10-29T06:58:06.108Z,11.09
2022-10-29T07:00:34.540Z,11.00
2022-10-29T07:03:03.605Z,11.13
2022-10-29T07:05:31.894Z,11.07
2022-10-29T07:08:00.681Z,11.07
2022-10-29T07:10:30.587Z,11.13
2022-10-29T07:12:58.382Z,11.27
2022-10-29T07:15:28.034Z,11.33
2022-10-29T07:18:06.228Z,11.24
2022-10-29T07:20:42.840Z,11.19
2022-10-29T07:23:11.567Z,11.35
2022-10-29T07:25:39.966Z,11.36
2022-10-29T07:28:11.824Z,11.34
2022-10-29T07:30:40.429Z,11.41
2022-10-29T07:33:08.012Z,11.57
2022-10-29T07:35:35.754Z,11.65
2022-10-29T07:38:07.240Z,11.69
2022-10-29T07:40:46.716Z,11.69
2022-10-29T07:43:14.614Z,11.74
2022-10-29T07:45:46.465Z,11.81
2022-10-29T07:48:14.325Z,11.67
2022-10-29T07:50:41.931Z,11.75
2022-10-29T07:53:10.017Z,11.43
2022-10-29T07:55:37.783Z,11.55
2022-10-29T07:58:07.834Z,11.67
2022-10-29T08:00:37.079Z,11.71
2022-10-29T08:03:05.486Z,11.83
2022-10-29T08:05:33.039Z,11.78
2022-10-29T08:08:00.904Z,11.88
2022-10-29T08:10:30.680Z,11.88
2022-10-29T08:13:00.777Z,11.98
2022-10-29T08:15:30.913Z,11.94
2022-10-29T08:17:59.150Z,12.02
2022-10-29T08:20:28.642Z,12.15
2022-10-29T08:22:59.858Z,12.14
2022-10-29T08:25:28.142Z,12.12
2022-10-29T08:28:00.434Z,11.83
2022-10-29T08:30:28.612Z,11.95
2022-10-29T08:32:56.516Z,12.10
2022-10-29T08:35:24.259Z,12.11
2022-10-29T08:37:51.880Z,11.98
2022-10-29T08:40:31.829Z,12.21
2022-10-29T08:43:27.217Z,12.20
2022-10-29T08:45:55.745Z,12.17
2022-10-29T08:48:34.058Z,12.22
2022-10-29T08:51:32.304Z,11.90
2022-10-29T08:56:51.855Z,12.08
2022-10-29T08:59:24.301Z,12.31
2022-10-29T09:01:55.386Z,12.23
2022-10-29T09:04:26.040Z,12.29
2022-10-29T09:07:16.102Z,12.23
2022-10-29T09:10:11.337Z,12.09
2022-10-29T09:12:58.076Z,11.98
2022-10-29T09:16:01.154Z,12.30
2022-10-29T09:22:03.782Z,12.54
2022-10-29T09:24:51.574Z,12.61
2022-10-29T09:27:24.859Z,12.51
2022-10-29T09:30:19.536Z,12.67
2022-10-29T09:33:07.548Z,12.66
2022-10-29T09:35:39.538Z,12.55
2022-10-29T09:38:29.744Z,12.60
2022-10-29T09:40:59.294Z,12.59
2022-10-29T09:43:45.164Z,12.67
2022-10-29T09:46:34.438Z,12.67
2022-10-29T09:49:20.760Z,12.70
2022-10-29T09:51:57.379Z,12.62
2022-10-29T09:54:25.651Z,12.41
2022-10-29T09:56:56.164Z,12.54
2022-10-29T09:59:32.040Z,12.66
2022-10-29T10:02:00.147Z,12.62
2022-10-29T10:04:31.126Z,12.65
2022-10-29T10:07:10.599Z,12.79
2022-10-29T10:09:51.025Z,12.73
2022-10-29T10:12:19.705Z,12.73
2022-10-29T10:14:48.260Z,12.10
2022-10-29T10:17:15.771Z,12.52
2022-10-29T10:19:45.473Z,12.75
2022-10-29T10:22:22.396Z,12.86
2022-10-29T10:24:49.932Z,12.73
2022-10-29T10:27:17.554Z,12.92
2022-10-29T10:30:16.047Z,12.98
2022-10-29T10:32:43.868Z,12.96
2022-10-29T10:35:31.386Z,12.49
2022-10-29T10:38:07.616Z,12.86
2022-10-29T10:40:36.122Z,13.17
2022-10-29T10:43:06.926Z,13.33
2022-10-29T10:45:37.843Z,13.44
2022-10-29T10:48:09.012Z,13.14
2022-10-29T10:50:37.127Z,13.26
2022-10-29T10:53:20.608Z,13.39
2022-10-29T10:55:53.469Z,13.68
2022-10-29T10:58:39.113Z,13.50
2022-10-29T11:01:12.788Z,13.45
2022-10-29T11:03:46.554Z,13.45
2022-10-29T11:06:22.545Z,13.52
2022-10-29T11:08:54.522Z,13.58
2022-10-29T11:11:43.742Z,13.67
2022-10-29T11:14:28.874Z,13.66
2022-10-29T11:16:58.489Z,13.73
2022-10-29T11:19:38.729Z,13.43
2022-10-29T11:22:23.284Z,13.61
2022-10-29T11:25:29.732Z,13.51
2022-10-29T11:28:03.538Z,13.57
2022-10-29T11:30:34.393Z,13.78
2022-10-29T11:33:20.616Z,13.78
2022-10-29T11:36:00.478Z,13.82
2022-10-29T11:38:34.344Z,13.83
2022-10-29T11:41:08.205Z,13.79
2022-10-29T11:43:35.698Z,13.94
2022-10-29T11:47:00.623Z,14.02
2022-10-29T11:49:30.894Z,13.71
2022-10-29T11:52:23.336Z,14.00
2022-10-29T11:55:18.560Z,13.96
2022-10-29T11:57:56.164Z,13.72
2022-10-29T12:00:24.587Z,13.98
2022-10-29T12:03:46.626Z,14.19
2022-10-29T12:06:18.457Z,14.12
2022-10-29T12:08:52.473Z,13.75
2022-10-29T12:11:57.180Z,13.73
2022-10-29T12:14:48.137Z,13.83
2022-10-29T12:17:18.705Z,13.94
2022-10-29T12:20:26.847Z,13.97
2022-10-29T12:23:05.979Z,14.28
2022-10-29T12:26:03.437Z,14.18
2022-10-29T12:28:44.736Z,14.22
2022-10-29T12:31:24.448Z,14.31
2022-10-29T12:34:17.032Z,14.43
2022-10-29T12:36:57.838Z,14.22
2022-10-29T12:39:31.609Z,14.29
2022-10-29T12:42:06.300Z,14.09
2022-10-29T12:44:45.727Z,13.95
2022-10-29T12:47:14.812Z,14.08
2022-10-29T12:50:04.884Z,14.14
2022-10-29T12:52:40.051Z,14.27
2022-10-29T12:55:10.206Z,14.33
2022-10-29T12:57:37.912Z,14.20
2022-10-29T13:00:23.632Z,14.25
2022-10-29T13:02:52.538Z,14.29
2022-10-29T13:05:40.029Z,14.13
2022-10-29T13:08:08.549Z,14.31
2022-10-29T13:10:35.983Z,14.47
2022-10-29T13:13:15.253Z,14.35
2022-10-29T13:15:45.161Z,14.37
2022-10-29T13:18:12.548Z,14.27
2022-10-29T13:20:42.160Z,14.19
2022-10-29T13:23:22.116Z,14.42
2022-10-29T13:25:50.601Z,14.32
2022-10-29T13:28:18.263Z,14.23
2022-10-29T13:30:49.862Z,14.38
2022-10-29T13:33:20.308Z,14.45
2022-10-29T13:36:01.432Z,13.72
2022-10-29T13:39:04.571Z,14.00
2022-10-29T13:41:42.843Z,14.03
2022-10-29T13:44:12.119Z,14.07
2022-10-29T13:46:47.581Z,13.75
2022-10-29T13:49:24.165Z,13.93
2022-10-29T13:51:57.277Z,14.16
2022-10-29T13:54:32.556Z,14.20
2022-10-29T13:57:14.799Z,14.33
2022-10-29T13:59:45.408Z,14.14
2022-10-29T14:02:18.360Z,14.15
2022-10-29T14:04:49.940Z,14.24
2022-10-29T14:07:22.014Z,14.25
2022-10-29T14:09:53.359Z,14.18
2022-10-29T14:12:24.299Z,14.31
2022-10-29T14:14:58.434Z,13.97
2022-10-29T14:17:25.863Z,14.22
2022-10-29T14:19:53.754Z,14.14
2022-10-29T14:22:30.279Z,13.91
2022-10-29T14:24:58.040Z,13.78
2022-10-29T14:27:25.561Z,13.84
2022-10-29T14:29:54.722Z,14.01
2022-10-29T14:32:23.493Z,13.75
2022-10-29T14:34:51.922Z,13.94
2022-10-29T14:37:28.792Z,13.97
2022-10-29T14:40:00.112Z,13.69
2022-10-29T14:42:33.558Z,13.66
2022-10-29T14:45:05.090Z,13.81
2022-10-29T14:47:37.196Z,13.57
2022-10-29T14:50:13.739Z,13.77
2022-10-29T14:52:42.991Z,13.96
2022-10-29T14:55:20.384Z,14.05
2022-10-29T14:58:05.149Z,13.94
2022-10-29T15:00:37.061Z,14.02
2022-10-29T15:03:06.164Z,14.02
2022-10-29T15:05:36.349Z,14.03
2022-10-29T15:08:25.132Z,13.91
2022-10-29T15:10:54.893Z,14.02
2022-10-29T15:13:30.506Z,14.01
2022-10-29T15:16:01.154Z,14.01
2022-10-29T15:18:29.848Z,14.04
2022-10-29T15:20:57.476Z,14.05
2022-10-29T15:23:30.943Z,14.05
2022-10-29T15:26:04.502Z,14.00
2022-10-29T15:28:39.254Z,14.01
2022-10-29T15:31:07.175Z,14.00
2022-10-29T15:33:36.082Z,13.94
2022-10-29T15:36:04.929Z,13.95
2022-10-29T15:38:36.473Z,13.92
2022-10-29T15:41:19.600Z,13.63
2022-10-29T15:43:52.529Z,13.62
2022-10-29T15:46:33.026Z,13.59
2022-10-29T15:49:00.529Z,13.60
2022-10-29T15:51:29.646Z,13.39
2022-10-29T15:53:58.962Z,13.29
2022-10-29T15:56:26.409Z,13.29
2022-10-29T15:58:54.883Z,13.33
2022-10-29T16:01:22.504Z,13.33
2022-10-29T16:03:50.388Z,13.36
2022-10-29T16:06:18.117Z,13.36
2022-10-29T16:08:52.270Z,13.35
2022-10-29T16:11:20.903Z,13.39
2022-10-29T16:13:55.132Z,13.39
2022-10-29T16:16:24.897Z,13.40
2022-10-29T16:18:53.477Z,13.41
2022-10-29T16:21:23.609Z,13.42
2022-10-29T16:23:52.190Z,13.39
2022-10-29T16:26:24.511Z,13.40
2022-10-29T16:28:53.361Z,13.39
2022-10-29T16:31:28.638Z,13.38
2022-10-29T16:34:02.959Z,13.34
2022-10-29T16:36:30.531Z,13.28
2022-10-29T16:38:58.422Z,13.30
2022-10-29T16:41:26.012Z,13.09
2022-10-29T16:43:53.683Z,13.05
2022-10-29T16:46:21.642Z,13.10
2022-10-29T16:48:49.487Z,13.17
2022-10-29T16:51:17.007Z,13.19
2022-10-29T16:53:44.758Z,13.19
2022-10-29T16:56:12.293Z,13.19
2022-10-29T16:58:39.792Z,13.19
2022-10-29T17:01:10.538Z,13.10
2022-10-29T17:03:39.252Z,13.11
2022-10-29T17:06:09.459Z,13.06
2022-10-29T17:08:38.158Z,13.01
2022-10-29T17:11:10.117Z,12.71
2022-10-29T17:13:38.326Z,12.92
2022-10-29T17:16:10.308Z,12.98
2022-10-29T17:18:38.372Z,13.01
2022-10-29T17:21:06.086Z,12.89
2022-10-29T17:23:33.783Z,12.84
2022-10-29T17:26:01.852Z,12.94
2022-10-29T17:28:29.544Z,12.97
2022-10-29T17:30:57.128Z,12.83
2022-10-29T17:33:24.930Z,12.88
2022-10-29T17:36:01.514Z,12.93
2022-10-29T17:38:29.437Z,12.83
2022-10-29T17:40:56.996Z,12.89
2022-10-29T17:43:24.587Z,12.92
2022-10-29T17:45:52.803Z,12.97
2022-10-29T17:48:24.036Z,12.80
2022-10-29T17:51:00.715Z,12.89
2022-10-29T17:53:29.494Z,12.91
2022-10-29T17:56:00.882Z,12.91
2022-10-29T17:58:28.862Z,12.81
2022-10-29T18:01:03.238Z,12.76
2022-10-29T18:03:31.458Z,12.71
2022-10-29T18:06:02.977Z,12.59
2022-10-29T18:08:31.176Z,12.62
2022-10-29T18:11:06.599Z,12.67
2022-10-29T18:13:39.402Z,12.77
2022-10-29T18:16:08.259Z,12.65
2022-10-29T18:18:48.225Z,12.58
2022-10-29T18:21:25.878Z,12.55
2022-10-29T18:23:53.614Z,12.58
2022-10-29T18:26:23.953Z,12.52
2022-10-29T18:55:23.557Z,12.56
2022-10-29T18:57:51.747Z,12.60
2022-10-29T19:00:19.674Z,12.55
2022-10-29T19:02:47.657Z,12.46
2022-10-29T19:05:15.500Z,12.38
2022-10-29T19:07:43.015Z,12.19
2022-10-29T19:10:10.707Z,12.24
2022-10-29T19:12:38.658Z,12.22
2022-10-29T19:15:06.796Z,12.31
2022-10-29T19:17:34.324Z,12.26
2022-10-29T19:20:02.517Z,12.01
2022-10-29T19:22:31.161Z,12.13
2022-10-29T19:24:59.230Z,12.12
2022-10-29T19:27:27.040Z,12.26
2022-10-29T19:29:54.519Z,12.24
2022-10-29T19:32:22.007Z,12.20
2022-10-29T19:34:49.784Z,12.24
2022-10-29T19:37:17.394Z,12.29
2022-10-29T19:39:45.154Z,12.22
2022-10-29T19:42:13.243Z,12.22
2022-10-29T19:44:40.947Z,12.19
2022-10-29T19:47:08.714Z,12.13
2022-10-29T19:49:36.612Z,12.19
2022-10-29T19:52:04.363Z,12.24
2022-10-29T19:54:32.221Z,12.28
2022-10-29T19:57:00.055Z,12.22
2022-10-29T19:59:27.591Z,12.12
2022-10-29T20:01:55.436Z,12.25
2022-10-29T20:04:24.979Z,12.27
2022-10-29T20:06:52.546Z,12.25
2022-10-29T20:09:20.097Z,12.28
2022-10-29T20:11:48.086Z,12.22
2022-10-29T20:14:15.556Z,12.27
2022-10-29T20:16:43.322Z,12.04
2022-10-29T20:19:11.678Z,11.77
2022-10-29T20:21:39.271Z,12.00
2022-10-29T20:24:06.907Z,11.92
2022-10-29T20:26:34.996Z,11.90
2022-10-29T20:29:02.536Z,11.80
2022-10-29T20:31:32.191Z,11.71
2022-10-29T20:34:01.669Z,11.68
2022-10-29T20:36:31.818Z,11.76
2022-10-29T20:39:00.166Z,11.81
2022-10-29T20:41:30.356Z,11.79
2022-10-29T20:44:02.467Z,11.88
2022-10-29T20:46:30.340Z,11.88
2022-10-29T20:48:58.047Z,11.91
2022-10-29T20:51:26.057Z,11.95
2022-10-29T20:57:36.402Z,11.90
2022-10-29T21:00:04.818Z,11.98
2022-10-29T21:02:34.597Z,11.96
2022-10-29T21:05:02.106Z,11.80
2022-10-29T21:07:30.962Z,11.85
2022-10-29T21:09:58.409Z,11.82
2022-10-29T21:12:25.859Z,11.71
2022-10-29T21:14:53.631Z,11.76
2022-10-29T21:17:23.173Z,11.74
2022-10-29T21:19:50.660Z,11.80
2022-10-29T21:22:19.163Z,11.78
2022-10-29T21:24:48.190Z,11.77
2022-10-29T21:27:15.865Z,11.77
2022-10-29T21:29:43.652Z,11.56
2022-10-29T21:32:12.908Z,11.66
2022-10-29T21:34:43.614Z,11.51
2022-10-29T21:37:11.097Z,11.51
2022-10-29T21:39:38.615Z,11.57
2022-10-29T21:42:06.308Z,11.53
2022-10-29T21:44:33.740Z,11.58
2022-10-29T21:47:01.224Z,11.59
2022-10-29T21:49:29.044Z,11.68
2022-10-29T21:51:56.525Z,11.60
2022-10-29T21:54:25.843Z,11.56
2022-10-29T21:56:56.046Z,11.70
2022-10-29T21:59:24.271Z,11.77
2022-10-29T22:01:51.821Z,11.77
2022-10-29T22:04:19.812Z,11.80
2022-10-29T22:06:47.270Z,11.79
2022-10-29T22:09:14.779Z,11.76
2022-10-29T22:11:42.594Z,11.77
2022-10-29T22:14:09.998Z,11.73
2022-10-29T22:16:37.466Z,11.56
2022-10-29T22:19:05.237Z,11.62
2022-10-29T22:21:33.010Z,11.67
2022-10-29T22:24:00.458Z,11.61
2022-10-29T22:26:29.796Z,11.61
2022-10-29T22:28:57.280Z,11.69
2022-10-29T22:31:24.880Z,11.73
2022-10-29T22:33:52.844Z,11.69
2022-10-29T22:36:25.179Z,11.69
2022-10-29T22:38:54.514Z,11.69
2022-10-29T22:41:22.408Z,11.69
2022-10-29T22:43:49.869Z,11.60
2022-10-29T22:46:18.538Z,11.47
2022-10-29T22:48:46.086Z,11.39
2022-10-29T22:51:24.480Z,11.50
2022-10-29T22:53:53.541Z,11.55
2022-10-29T22:56:23.156Z,11.56
2022-10-29T22:58:50.601Z,11.49
2022-10-29T23:01:30.076Z,11.55
2022-10-29T23:03:58.618Z,11.50
2022-10-29T23:06:27.404Z,11.37
2022-10-29T23:08:56.885Z,11.37
2022-10-29T23:11:29.650Z,11.47
2022-10-29T23:13:59.012Z,11.58
2022-10-29T23:16:28.830Z,11.56
2022-10-29T23:18:58.063Z,11.45
2022-10-29T23:21:26.308Z,11.56
2022-10-29T23:23:54.592Z,11.34
2022-10-29T23:26:23.165Z,11.38
2022-10-29T23:28:51.082Z,11.46
2022-10-29T23:31:21.349Z,11.53
2022-10-29T23:33:50.925Z,11.49
2022-10-29T23:36:20.489Z,11.55
2022-10-29T23:38:47.950Z,11.48
2022-10-29T23:41:15.794Z,11.59
2022-10-29T23:43:43.493Z,11.60
2022-10-29T23:46:11.200Z,11.51
2022-10-29T23:48:38.628Z,11.61
2022-10-29T23:51:06.932Z,11.54
2022-10-29T23:53:34.411Z,11.60
2022-10-29T23:56:01.990Z,11.58
2022-10-29T23:58:29.722Z,11.64
